Time;durP1;ratioP1;P1;durP2;ratioP2;P2;SDS_P1;SDS_P2;PMS_P1;PMS_P2;Temp;Humidity;BMP_temperature;BMP_pressure;BME280_temperature;BME280_humidity;BME280_pressure;Samples;Min_cycle;Max_cycle;Signal;HPM_P1;HPM_P2
2022/08/25 00:02:04;;;;;;;3.05;1.67;;;19.20;97.50;;;18.67;100.00;97638.44;4979696;28;20109;-69
2022/08/25 00:04:34;;;;;;;2.17;1.20;;;19.20;97.70;;;18.55;100.00;97642.84;4983701;28;20051;-70
2022/08/25 00:07:04;;;;;;;3.72;1.27;;;19.20;97.90;;;18.56;100.00;97641.03;4990528;28;20472;-69
2022/08/25 00:09:33;;;;;;;3.20;1.50;;;19.10;98.20;;;18.51;100.00;97643.16;4985831;28;20532;-69
2022/08/25 00:12:02;;;;;;;2.40;1.20;;;19.10;98.40;;;18.60;100.00;97647.75;4987630;28;20094;-69
2022/08/25 00:14:35;;;;;;;2.00;1.20;;;19.10;98.70;;;18.54;100.00;97635.91;4988135;28;20131;-69
2022/08/25 00:17:04;;;;;;;3.60;1.30;;;19.10;98.80;;;18.43;100.00;97641.13;4986046;28;20220;-69
2022/08/25 00:19:36;;;;;;;2.00;1.30;;;19.10;99.10;;;18.47;100.00;97642.53;4988675;28;20463;-69
2022/08/25 00:22:06;;;;;;;3.85;1.58;;;19.00;99.60;;;18.32;100.00;97643.69;4985305;28;20046;-70
2022/08/25 00:24:34;;;;;;;4.15;1.70;;;18.90;99.90;;;18.15;100.00;97643.13;4988477;28;20125;-69
2022/08/25 00:27:01;;;;;;;3.92;1.60;;;18.80;99.90;;;18.23;100.00;97644.38;4988592;28;20058;-69
2022/08/25 00:29:30;;;;;;;5.68;1.70;;;18.80;99.90;;;17.98;100.00;97646.13;5004245;28;20209;-69
2022/08/25 00:31:58;;;;;;;3.03;1.52;;;18.70;99.90;;;18.06;100.00;97650.81;4987232;28;20528;-69
2022/08/25 00:34:32;;;;;;;1.90;1.40;;;18.70;99.90;;;18.06;100.00;97650.81;5001897;28;20078;-69
2022/08/25 00:37:02;;;;;;;4.63;1.73;;;18.70;99.90;;;18.03;100.00;97651.06;4985327;28;20050;-69
2022/08/25 00:39:29;;;;;;;3.47;1.40;;;18.60;99.90;;;18.06;100.00;97648.19;4979890;28;20074;-69
2022/08/25 00:41:56;;;;;;;4.93;1.63;;;18.50;99.90;;;17.88;100.00;97651.19;4999994;28;20046;-69
2022/08/25 00:44:27;;;;;;;2.90;1.45;;;18.50;99.90;;;17.86;100.00;97655.72;4988140;28;20639;-69
2022/08/25 00:46:59;;;;;;;4.25;1.98;;;18.50;99.90;;;17.98;100.00;97643.50;5004149;28;20058;-70
2022/08/25 00:49:39;;;;;;;3.17;1.35;;;18.40;99.90;;;17.93;100.00;97650.88;4987695;28;20756;-70
2022/08/25 00:52:22;;;;;;;5.55;1.95;;;18.40;99.90;;;17.64;100.00;97658.97;5001012;28;20145;-69
2022/08/25 00:54:55;;;;;;;4.20;1.50;;;18.40;99.90;;;17.65;100.00;97668.56;5005268;28;20054;-69
2022/08/25 00:57:38;;;;;;;3.35;1.98;;;18.30;99.90;;;17.71;100.00;97667.25;4988643;28;20107;-69
2022/08/25 01:00:19;;;;;;;4.47;1.70;;;18.30;99.90;;;17.64;100.00;97666.03;4988151;28;20137;-70
2022/08/25 01:02:46;;;;;;;2.58;1.67;;;18.30;99.90;;;17.58;100.00;97666.44;4988367;28;20144;-69
2022/08/25 01:05:13;;;;;;;4.78;1.77;;;18.20;99.90;;;17.50;100.00;97669.59;4987918;28;20121;-70
2022/08/25 01:07:43;;;;;;;3.47;1.70;;;18.20;99.90;;;17.42;100.00;97671.91;4985435;28;20153;-69
2022/08/25 01:10:12;;;;;;;1.90;1.40;;;18.20;99.90;;;17.48;100.00;97668.88;4980612;28;20078;-70
2022/08/25 01:12:39;;;;;;;3.72;1.50;;;18.10;99.90;;;17.54;100.00;97676.31;4980968;28;20128;-69
2022/08/25 01:15:09;;;;;;;5.20;1.90;;;18.10;99.90;;;17.30;100.00;97681.47;4988440;28;20539;-70
2022/08/25 01:17:48;;;;;;;4.07;2.08;;;18.00;99.90;;;17.19;100.00;97681.34;4987333;28;20153;-69
2022/08/25 01:20:18;;;;;;;4.22;1.60;;;18.00;99.90;;;17.24;100.00;97681.88;4982100;28;20060;-70
2022/08/25 01:22:46;;;;;;;4.30;1.52;;;18.00;99.90;;;17.04;100.00;97683.25;4984560;28;20154;-69
2022/08/25 01:25:51;;;;;;;4.72;1.40;;;18.00;99.90;;;17.20;100.00;97690.91;4988052;28;20149;-70
2022/08/25 01:28:19;;;;;;;2.33;1.40;;;17.90;99.90;;;17.21;100.00;97692.59;5003317;28;20097;-69
2022/08/25 01:30:46;;;;;;;3.92;1.52;;;17.80;99.90;;;17.10;100.00;97698.53;4987250;28;20078;-69
2022/08/25 01:33:16;;;;;;;3.75;1.60;;;17.80;99.90;;;17.12;100.00;97696.66;4999748;28;20057;-70
2022/08/25 01:35:44;;;;;;;3.95;1.83;;;17.80;99.90;;;17.12;100.00;97694.03;4976722;28;20141;-69
2022/08/25 01:38:12;;;;;;;5.72;1.80;;;17.80;99.90;;;16.91;100.00;97698.94;4983651;28;20053;-69
2022/08/25 01:40:40;;;;;;;3.80;1.98;;;17.80;99.90;;;16.96;100.00;97709.13;4980916;28;20149;-69
2022/08/25 01:43:12;;;;;;;3.55;2.03;;;17.70;99.90;;;16.83;100.00;97703.84;4975478;28;20137;-69
2022/08/25 01:45:44;;;;;;;3.70;1.60;;;17.60;99.90;;;16.79;100.00;97711.09;4985970;28;20094;-69
2022/08/25 01:48:13;;;;;;;4.13;1.60;;;17.60;99.90;;;16.76;100.00;97716.47;4987723;28;20305;-69
2022/08/25 01:50:42;;;;;;;4.75;1.70;;;17.50;99.90;;;16.68;100.00;97716.16;4982249;28;20145;-69
2022/08/25 01:53:23;;;;;;;6.05;1.90;;;17.40;99.90;;;16.63;100.00;97723.47;4984291;28;20468;-69
2022/08/25 01:55:50;;;;;;;5.10;1.85;;;17.40;99.90;;;16.66;100.00;97726.72;5002702;28;20061;-69
2022/08/25 01:58:46;;;;;;;3.35;1.75;;;17.40;99.90;;;16.72;100.00;97730.75;5003219;28;20053;-70
2022/08/25 02:01:20;;;;;;;2.83;1.55;;;17.30;99.90;;;16.77;100.00;97725.19;4984760;28;20137;-69
2022/08/25 02:03:51;;;;;;;3.00;1.35;;;17.40;99.90;;;16.84;100.00;97721.28;4986610;28;20477;-69
2022/08/25 02:06:27;;;;;;;4.55;1.70;;;17.30;99.90;;;16.69;100.00;97726.53;4983549;28;20132;-69
2022/08/25 02:09:03;;;;;;;2.97;1.60;;;17.30;99.90;;;16.74;100.00;97728.88;4986258;28;20058;-69
2022/08/25 02:11:32;;;;;;;3.10;1.30;;;17.30;99.90;;;16.76;100.00;97724.34;4986177;28;20050;-70
2022/08/25 02:13:59;;;;;;;2.42;1.50;;;17.30;99.90;;;16.74;100.00;97728.88;4986467;28;20042;-70
2022/08/25 02:16:33;;;;;;;3.42;1.80;;;17.20;99.90;;;16.66;100.00;97725.91;4983690;28;20053;-70
2022/08/25 02:19:01;;;;;;;2.78;1.58;;;17.20;99.90;;;16.63;100.00;97729.56;4984983;28;20042;-69
2022/08/25 02:21:28;;;;;;;5.40;1.88;;;17.20;99.90;;;16.56;100.00;97727.41;5002113;28;20133;-69
2022/08/25 02:23:55;;;;;;;3.67;1.70;;;17.10;99.90;;;16.63;100.00;97724.31;4984716;28;20439;-69
2022/08/25 02:26:23;;;;;;;3.53;1.90;;;17.20;99.90;;;16.52;100.00;97735.47;4982749;28;20054;-69
2022/08/25 02:28:52;;;;;;;3.45;1.90;;;17.10;99.90;;;16.43;100.00;97737.84;4983248;28;20453;-69
2022/08/25 02:31:23;;;;;;;3.45;2.20;;;17.10;99.90;;;16.39;100.00;97738.97;4980908;28;20153;-69
2022/08/25 02:33:52;;;;;;;2.97;1.70;;;17.10;99.90;;;16.48;100.00;97736.59;4984169;28;20059;-69
2022/08/25 02:36:20;;;;;;;4.47;1.92;;;17.10;99.90;;;16.26;100.00;97744.16;4985010;28;20134;-69
2022/08/25 02:38:47;;;;;;;3.45;1.60;;;17.10;99.90;;;16.20;100.00;97753.25;4986515;28;20123;-69
2022/08/25 02:41:18;;;;;;;2.70;1.80;;;17.00;99.90;;;16.16;100.00;97750.91;4982102;28;20487;-69
2022/08/25 02:43:47;;;;;;;3.85;1.38;;;17.00;99.90;;;16.28;100.00;97739.66;5002496;28;20055;-70
2022/08/25 02:46:18;;;;;;;2.47;1.40;;;17.00;99.90;;;16.07;100.00;97747.91;4986341;28;20460;-69
2022/08/25 02:48:46;;;;;;;4.40;1.77;;;16.90;99.90;;;16.04;100.00;97748.13;4985867;28;20524;-69
2022/08/25 02:51:14;;;;;;;4.03;1.70;;;16.90;99.90;;;16.03;100.00;97746.44;4983325;28;20072;-69
2022/08/25 02:53:44;;;;;;;3.85;1.80;;;16.80;99.90;;;16.00;100.00;97746.63;4984498;28;20137;-70
2022/08/25 02:56:13;;;;;;;2.28;1.65;;;16.80;99.90;;;15.99;100.00;97751.97;4988208;28;20081;-69
2022/08/25 02:58:41;;;;;;;3.15;1.83;;;16.80;99.90;;;15.99;100.00;97754.59;4980604;28;20068;-69
2022/08/25 03:01:12;;;;;;;5.43;1.75;;;;;;;16.03;100.00;97748.19;5002468;28;20501;-69
2022/08/25 03:03:41;;;;;;;3.15;1.73;;;16.80;99.90;;;15.95;100.00;97751.31;5000994;28;20056;-69
2022/08/25 03:06:14;;;;;;;4.82;1.65;;;16.80;99.90;;;15.84;100.00;97751.97;4986096;28;20062;-69
2022/08/25 03:08:41;;;;;;;2.72;2.03;;;16.70;99.90;;;15.94;100.00;97759.25;4980924;28;20057;-69
2022/08/25 03:11:09;;;;;;;3.08;1.77;;;16.70;99.90;;;15.96;100.00;97752.16;4984480;28;20464;-69
2022/08/25 03:13:36;;;;;;;2.53;1.75;;;16.60;99.90;;;15.93;100.00;97754.97;5002359;28;20059;-69
2022/08/25 03:16:05;;;;;;;3.67;1.83;;;16.60;99.90;;;15.91;100.00;97751.59;4984009;28;20141;-69
2022/08/25 03:18:40;;;;;;;3.63;1.75;;;16.70;99.90;;;15.88;100.00;97750.84;4995828;28;20595;-69
2022/08/25 03:21:10;;;;;;;3.42;1.98;;;16.60;99.90;;;15.91;100.00;97760.28;5000316;28;20140;-69
2022/08/25 03:23:39;;;;;;;4.60;2.40;;;16.60;99.90;;;15.95;100.00;97753.94;4982007;28;20050;-69
2022/08/25 03:28:54;;;;;;;6.45;2.55;;;16.50;99.90;;;15.78;100.00;97752.34;4984419;28;20169;-69
2022/08/25 03:31:26;;;;;;;2.95;1.80;;;16.50;99.90;;;15.72;100.00;97759.72;4985326;28;20141;-70
2022/08/25 03:33:54;;;;;;;4.35;1.88;;;16.50;99.90;;;15.84;100.00;97762.44;4982448;28;20060;-69
2022/08/25 03:36:22;;;;;;;5.55;2.25;;;16.50;99.90;;;15.58;100.00;97753.50;4982252;28;20060;-70
2022/08/25 03:38:51;;;;;;;4.80;1.80;;;16.40;99.90;;;15.56;100.00;97752.75;4984187;28;20518;-69
2022/08/25 03:41:23;;;;;;;3.05;1.90;;;16.30;99.90;;;15.72;100.00;97744.88;4984770;28;20100;-69
2022/08/25 03:43:55;;;;;;;3.42;2.00;;;16.30;99.90;;;15.71;100.00;97739.72;4984076;28;20055;-69
2022/08/25 03:46:42;;;;;;;3.17;2.15;;;16.30;99.90;;;15.64;100.00;97745.28;4977000;28;20050;-69
2022/08/25 03:49:13;;;;;;;2.90;1.70;;;16.30;99.90;;;15.75;100.00;97746.44;4974835;28;20085;-69
2022/08/25 03:51:52;;;;;;;2.85;1.60;;;16.40;99.90;;;15.81;100.00;97746.91;4979033;28;20137;-69
2022/08/25 03:54:23;;;;;;;4.55;2.08;;;16.40;99.90;;;15.85;100.00;97734.47;4984198;28;20129;-69
2022/08/25 03:56:51;;;;;;;3.80;1.75;;;16.40;99.90;;;15.85;100.00;97737.09;5002254;28;20129;-69
2022/08/25 03:59:18;;;;;;;4.43;2.10;;;16.40;99.90;;;15.63;100.00;97743.59;4985644;28;20093;-70
2022/08/25 04:01:46;;;;;;;2.88;1.67;;;16.30;99.90;;;15.59;100.00;97756.97;4979695;28;20050;-69
2022/08/25 04:04:20;;;;;;;5.97;1.73;;;16.30;99.90;;;15.67;100.00;97757.38;4985443;28;20188;-69
2022/08/25 04:06:47;;;;;;;2.85;2.00;;;16.30;99.90;;;15.65;100.00;97759.22;4982164;28;20134;-69
2022/08/25 04:09:14;;;;;;;2.47;2.00;;;16.30;99.90;;;15.73;100.00;97758.78;4983223;28;20046;-70
2022/08/25 04:11:41;;;;;;;2.97;1.83;;;16.30;99.90;;;15.68;100.00;97757.25;4984442;28;20510;-69
2022/08/25 04:14:08;;;;;;;3.35;1.80;;;16.30;99.90;;;15.63;100.00;97758.47;4982590;28;20128;-69
2022/08/25 04:16:41;;;;;;;5.30;2.38;;;16.40;99.90;;;15.50;100.00;97771.44;4985131;28;20046;-69
2022/08/25 04:19:09;;;;;;;5.03;2.55;;;16.40;99.90;;;15.59;100.00;97773.50;4985923;28;20058;-69
2022/08/25 04:21:38;;;;;;;6.80;2.65;;;16.30;99.90;;;15.57;100.00;97767.50;5001491;28;20060;-70
2022/08/25 04:24:10;;;;;;;4.65;2.25;;;16.30;99.90;;;15.48;100.00;97768.91;4985866;28;20042;-69
2022/08/25 04:26:47;;;;;;;4.68;2.20;;;16.20;99.90;;;15.44;100.00;97772.66;4984837;28;20077;-70
2022/08/25 04:29:20;;;;;;;3.60;2.03;;;16.20;99.90;;;15.31;100.00;97773.47;5001906;28;20130;-69
2022/08/25 04:31:52;;;;;;;4.18;2.15;;;16.20;99.90;;;15.33;100.00;97771.63;5000988;28;20055;-69
2022/08/25 04:34:22;;;;;;;3.15;2.00;;;16.20;99.90;;;15.31;100.00;97776.09;4989398;28;20057;-69
2022/08/25 04:37:04;;;;;;;3.00;1.70;;;16.20;99.90;;;15.33;100.00;97775.06;4985130;28;20059;-69
2022/08/25 04:39:31;;;;;;;3.92;2.20;;;16.10;99.90;;;15.24;100.00;97775.59;4988945;28;20137;-69
2022/08/25 04:41:59;;;;;;;2.95;2.13;;;16.10;99.90;;;15.45;100.00;97776.94;4985446;28;20082;-69
2022/08/25 04:44:28;;;;;;;12.45;2.00;;;16.10;99.90;;;15.51;100.00;97780.13;4986513;28;20058;-69
2022/08/25 04:46:55;;;;;;;3.58;2.38;;;16.10;99.90;;;15.42;100.00;97784.97;4988869;28;20050;-69
2022/08/25 04:49:22;;;;;;;4.07;1.92;;;16.10;99.90;;;15.35;100.00;97783.66;5005196;28;20057;-69
2022/08/25 04:51:49;;;;;;;4.43;2.30;;;16.20;99.90;;;15.33;100.00;97774.22;4982806;28;20065;-69
2022/08/25 04:54:20;;;;;;;4.18;2.60;;;16.20;99.90;;;15.29;100.00;97780.56;4988481;28;20129;-69
2022/08/25 04:56:50;;;;;;;3.28;2.15;;;16.10;99.90;;;15.45;100.00;97776.09;4986579;28;20611;-69
2022/08/25 04:59:25;;;;;;;2.92;2.00;;;16.20;99.90;;;15.39;100.00;97776.47;4987457;28;20051;-69
2022/08/25 05:02:00;;;;;;;3.70;1.85;;;16.20;99.90;;;15.63;100.00;97767.16;4999990;28;20500;-69
2022/08/25 05:04:28;;;;;;;6.93;2.42;;;16.20;99.90;;;15.39;100.00;97766.00;4988248;28;20064;-69
2022/08/25 05:06:56;;;;;;;4.80;2.50;;;16.10;99.90;;;15.47;100.00;97767.22;4986465;28;20054;-70
2022/08/25 05:09:24;;;;;;;3.05;2.28;;;16.10;99.90;;;15.58;100.00;97774.44;5003678;28;20212;-70
2022/08/25 05:11:53;;;;;;;4.47;2.13;;;16.10;99.90;;;15.71;100.00;97769.34;4983127;28;20101;-69
2022/08/25 05:14:21;;;;;;;3.72;2.03;;;16.10;99.90;;;15.70;100.00;97765.00;4985922;28;20160;-69
2022/08/25 05:16:54;;;;;;;3.58;2.35;;;16.10;99.90;;;15.60;100.00;97759.50;4983788;28;20424;-69
2022/08/25 05:19:22;;;;;;;7.07;2.35;;;16.20;99.90;;;15.54;100.00;97757.25;4986059;28;20050;-69
2022/08/25 05:21:50;;;;;;;3.38;2.35;;;16.20;99.90;;;15.74;100.00;97747.41;4982745;28;20567;-69
2022/08/25 05:24:18;;;;;;;4.80;2.35;;;16.30;99.90;;;15.69;100.00;97748.47;4983896;28;20137;-69
2022/08/25 05:26:45;;;;;;;2.88;2.00;;;16.40;99.90;;;15.80;100.00;97742.59;4985205;28;20054;-70
2022/08/25 05:29:13;;;;;;;7.78;2.63;;;16.50;99.90;;;15.78;100.00;97751.47;4984107;28;20975;-69
2022/08/25 05:31:42;;;;;;;5.15;2.97;;;16.50;99.90;;;15.57;100.00;97751.81;4982785;28;20094;-69
2022/08/25 05:34:14;;;;;;;8.32;2.38;;;16.60;99.90;;;15.74;100.00;97748.22;4988230;28;20074;-69
2022/08/25 05:36:42;;;;;;;4.40;2.50;;;16.60;99.90;;;15.95;100.00;97735.59;4981357;28;20255;-69
2022/08/25 05:39:09;;;;;;;3.50;2.22;;;16.70;99.90;;;16.04;100.00;97728.97;4985485;28;20073;-69
2022/08/25 05:41:37;;;;;;;7.20;2.90;;;16.70;99.90;;;16.21;100.00;97740.97;4977045;28;20055;-70
2022/08/25 05:44:04;;;;;;;4.45;2.80;;;16.90;99.90;;;16.51;100.00;97738.19;4985894;28;20055;-69
2022/08/25 05:46:31;;;;;;;5.90;2.90;;;17.00;99.90;;;16.85;100.00;97749.97;4999861;28;20133;-69
2022/08/25 05:49:01;;;;;;;4.68;2.50;;;17.30;99.90;;;17.17;100.00;97751.44;4983692;28;20054;-69
2022/08/25 05:51:28;;;;;;;4.55;2.33;;;;;;;17.49;100.00;97744.00;5001570;28;20449;-69
2022/08/25 05:53:55;;;;;;;4.43;2.80;;;17.80;99.90;;;17.73;100.00;97742.34;4986236;28;20113;-69
2022/08/25 05:56:22;;;;;;;4.85;2.60;;;18.20;99.90;;;18.03;100.00;97733.31;4983175;28;20185;-69
2022/08/25 05:58:49;;;;;;;3.45;2.53;;;18.40;99.90;;;18.26;100.00;97736.91;4984495;28;20121;-69
2022/08/25 06:04:16;;;;;;;4.93;2.60;;;19.00;99.90;;;18.80;100.00;97707.63;4981011;28;20162;-69
2022/08/25 06:06:43;;;;;;;5.03;3.10;;;19.30;99.90;;;19.05;100.00;97702.34;4985517;28;20090;-69
2022/08/25 06:09:10;;;;;;;7.32;2.67;;;19.60;99.90;;;19.32;100.00;97691.50;4985494;28;20065;-69
2022/08/25 06:11:39;;;;;;;4.53;2.50;;;19.80;99.90;;;19.56;100.00;97686.97;4983631;28;20535;-69
2022/08/25 06:14:10;;;;;;;4.85;2.53;;;20.10;99.90;;;19.79;100.00;97685.22;4986985;28;20487;-69
2022/08/25 06:16:38;;;;;;;5.85;2.70;;;20.30;99.90;;;19.96;100.00;97676.00;4987803;28;20532;-69
2022/08/25 06:19:08;;;;;;;6.43;2.80;;;20.50;99.90;;;20.12;100.00;97657.16;4986351;28;20046;-69
2022/08/25 06:21:38;;;;;;;4.72;2.60;;;20.70;99.90;;;20.27;100.00;97655.94;4984738;28;20780;-69
2022/08/25 06:24:06;;;;;;;5.32;2.60;;;20.90;99.90;;;20.43;100.00;97636.22;4988024;28;20142;-69
2022/08/25 06:26:39;;;;;;;4.32;2.55;;;21.00;99.90;;;20.56;100.00;97631.63;4985016;28;20061;-69
2022/08/25 06:29:06;;;;;;;3.30;2.22;;;21.20;99.90;;;20.62;100.00;97630.31;5002881;28;20074;-70
2022/08/25 06:31:33;;;;;;;4.38;2.08;;;21.30;99.90;;;20.73;100.00;97632.03;4987609;28;20054;-68
2022/08/25 06:34:00;;;;;;;5.55;2.42;;;21.50;99.90;;;20.76;100.00;97618.63;4985512;28;20057;-68
2022/08/25 06:36:27;;;;;;;7.72;2.40;;;21.50;99.90;;;20.91;100.00;97613.84;4982400;28;20089;-68
2022/08/25 06:38:54;;;;;;;5.63;2.35;;;21.70;99.90;;;20.96;100.00;97604.59;4986837;28;20134;-68
2022/08/25 06:41:21;;;;;;;5.60;3.05;;;21.80;99.90;;;20.99;100.00;97601.69;4982078;28;20061;-68
2022/08/25 06:43:48;;;;;;;5.07;2.55;;;21.80;99.90;;;21.05;100.00;97597.66;4983061;28;20046;-68
2022/08/25 06:46:26;;;;;;;4.82;2.95;;;21.90;99.90;;;21.18;100.00;97593.03;4984507;28;20161;-68
2022/08/25 06:49:04;;;;;;;4.70;2.42;;;22.00;99.90;;;21.19;100.00;97596.47;4980174;28;20062;-68
2022/08/25 06:51:34;;;;;;;7.20;2.35;;;22.00;99.90;;;21.31;100.00;97591.00;4984133;28;20496;-68
2022/08/25 06:54:02;;;;;;;6.82;3.15;;;;;;;21.36;100.00;97587.13;5001682;28;20104;-68
2022/08/25 06:56:29;;;;;;;4.78;3.00;;;22.20;99.90;;;21.52;100.00;97588.31;4981704;28;20157;-68
2022/08/25 06:58:56;;;;;;;6.03;3.10;;;22.30;99.90;;;21.60;100.00;97587.69;4980906;28;20055;-68
2022/08/25 07:01:25;;;;;;;9.57;3.10;;;22.40;99.90;;;21.63;100.00;97591.84;4981234;28;20100;-68
2022/08/25 07:03:58;;;;;;;4.47;2.60;;;22.60;99.90;;;21.89;100.00;97584.25;4998664;28;20161;-68
2022/08/25 07:06:29;;;;;;;5.03;2.90;;;22.60;99.90;;;21.88;100.00;97582.59;4979849;28;20132;-68
2022/08/25 07:08:57;;;;;;;4.50;2.70;;;22.70;99.90;;;21.96;100.00;97584.56;4985654;28;20149;-68
2022/08/25 07:11:25;;;;;;;5.40;3.15;;;22.80;99.90;;;22.02;100.00;97592.78;4977990;28;20140;-68
2022/08/25 07:13:52;;;;;;;6.88;2.92;;;22.80;99.90;;;22.10;100.00;97598.22;4985719;28;20086;-68
2022/08/25 07:16:20;;;;;;;5.22;2.78;;;22.90;99.90;;;22.17;100.00;97593.22;5001594;28;20564;-68
2022/08/25 07:18:48;;;;;;;7.03;3.00;;;23.00;99.90;;;22.32;100.00;97591.03;4985671;28;20050;-68
2022/08/25 07:21:15;;;;;;;4.10;2.80;;;23.10;99.90;;;22.31;100.00;97587.56;4979565;28;20256;-68
2022/08/25 07:23:45;;;;;;;7.45;3.25;;;23.20;99.90;;;22.51;100.00;97585.75;4979417;28;20110;-68
2022/08/25 07:26:20;;;;;;;8.40;3.00;;;23.30;99.90;;;22.45;100.00;97588.94;4977137;28;20072;-68
2022/08/25 07:29:15;;;;;;;4.82;3.10;;;23.30;99.90;;;22.63;100.00;97593.53;4980191;28;20512;-68
2022/08/25 07:31:43;;;;;;;4.00;2.60;;;23.40;99.90;;;22.93;100.00;97601.28;4995952;28;20672;-68
2022/08/25 07:36:56;;;;;;;4.75;2.83;;;23.80;99.90;;;23.04;100.00;97589.72;4983803;28;20182;-68
2022/08/25 07:39:25;;;;;;;9.00;2.70;;;24.00;99.90;;;23.01;100.00;97582.06;4983285;28;20053;-68
2022/08/25 07:41:55;;;;;;;6.07;3.20;;;23.90;99.90;;;23.15;100.00;97589.56;4984903;28;20047;-68
2022/08/25 07:44:23;;;;;;;4.55;2.92;;;24.00;99.90;;;23.21;100.00;97588.13;4981434;28;20050;-68
2022/08/25 07:46:54;;;;;;;5.00;2.78;;;24.00;99.90;;;23.39;100.00;97589.03;4983639;28;20050;-68
2022/08/25 07:49:24;;;;;;;5.85;3.05;;;24.10;99.90;;;23.57;100.00;97593.56;5001876;28;20089;-68
2022/08/25 07:52:02;;;;;;;7.03;2.70;;;24.30;99.90;;;23.70;100.00;97590.59;4984981;28;20674;-68
2022/08/25 07:54:34;;;;;;;4.03;2.60;;;24.40;99.90;;;23.80;100.00;97583.44;4984870;28;20133;-68
2022/08/25 07:57:07;;;;;;;4.35;2.40;;;24.60;99.90;;;23.97;100.00;97585.31;4984591;28;20050;-68
2022/08/25 07:59:40;;;;;;;5.22;2.58;;;24.70;99.90;;;24.01;100.00;97591.94;4983419;28;20054;-68
2022/08/25 08:02:11;;;;;;;5.82;2.78;;;24.80;99.90;;;23.93;100.00;97586.56;4985266;28;20042;-68
2022/08/25 08:04:47;;;;;;;5.05;2.80;;;24.80;99.90;;;23.85;100.00;97588.31;4978775;28;20139;-68
2022/08/25 08:07:26;;;;;;;9.32;2.85;;;24.90;99.90;;;24.12;100.00;97592.72;5001261;28;20074;-68
2022/08/25 08:10:13;;;;;;;4.80;2.70;;;25.00;99.90;;;24.13;100.00;97591.75;4987983;28;20158;-68
2022/08/25 08:13:00;;;;;;;4.20;2.55;;;25.10;99.90;;;24.27;100.00;97598.34;5001063;28;20046;-68
2022/08/25 08:15:28;;;;;;;3.53;2.67;;;25.30;99.90;;;24.54;100.00;97589.50;5003952;28;20190;-68
2022/08/25 08:17:58;;;;;;;4.00;2.80;;;25.50;99.90;;;24.65;100.00;97583.94;4984721;28;20213;-68
2022/08/25 08:20:27;;;;;;;6.13;2.60;;;25.60;99.90;;;24.77;100.00;97582.75;4984868;28;20081;-68
2022/08/25 08:22:54;;;;;;;3.47;2.55;;;25.70;99.90;;;25.10;100.00;97584.78;4987003;28;20124;-69
2022/08/25 08:25:22;;;;;;;4.72;2.70;;;25.90;99.90;;;24.93;100.00;97582.03;4986568;28;20088;-69
2022/08/25 08:27:56;;;;;;;5.55;2.45;;;26.10;99.90;;;24.95;100.00;97579.19;4987481;28;20051;-69
2022/08/25 08:30:24;;;;;;;4.57;1.92;;;26.10;99.90;;;25.81;100.00;97570.34;4987171;28;20130;-69
2022/08/25 08:32:53;;;;;;;4.30;2.28;;;26.50;99.90;;;26.05;100.00;97565.13;4988132;28;20078;-69
2022/08/25 08:35:41;;;;;;;3.92;2.50;;;26.90;99.90;;;26.55;100.00;97563.38;4989143;28;20524;-69
2022/08/25 08:38:08;;;;;;;2.67;1.77;;;27.40;99.90;;;27.17;100.00;97559.28;4988510;28;20057;-69
2022/08/25 08:45:06;;;;;;;2.92;1.90;;;28.20;99.90;;;27.77;100.00;97557.91;4989521;28;20061;-68
2022/08/25 08:48:22;;;;;;;5.72;2.10;;;28.50;99.90;;;27.97;100.00;97558.34;5003905;28;20046;-68
2022/08/25 08:51:10;;;;;;;3.10;2.05;;;28.40;99.90;;;27.82;100.00;97553.72;4983662;28;20089;-68
2022/08/25 08:54:00;;;;;;;3.45;1.98;;;28.60;98.90;;;28.92;100.00;97547.25;5002954;28;20133;-68
2022/08/25 08:56:43;;;;;;;2.78;2.15;;;28.70;98.90;;;28.74;100.00;97534.25;5002372;28;20144;-68
2022/08/25 08:59:18;;;;;;;3.30;2.03;;;28.80;97.20;;;28.54;100.00;97526.75;4981745;28;20042;-68
2022/08/25 09:01:58;;;;;;;2.38;1.90;;;29.00;97.40;;;29.52;100.00;97532.91;4983990;28;20156;-68
2022/08/25 09:04:44;;;;;;;2.80;2.00;;;29.30;97.30;;;30.13;100.00;97524.59;4986014;28;20661;-68
2022/08/25 09:07:18;;;;;;;3.38;2.10;;;29.60;95.90;;;30.60;100.00;97525.00;4980606;28;20218;-68
2022/08/25 09:09:46;;;;;;;5.05;2.10;;;29.80;96.20;;;30.68;100.00;97522.22;4999640;28;20054;-68
2022/08/25 09:12:40;;;;;;;4.40;1.55;;;30.10;95.50;;;30.39;100.00;97525.88;4981286;28;20050;-68
2022/08/25 09:19:39;;;;;;;2.75;1.45;;;30.00;94.30;;;30.66;100.00;97507.34;4979593;28;20065;-68
2022/08/25 09:22:29;;;;;;;3.83;1.55;;;30.20;93.40;;;31.61;100.00;97514.75;4986106;28;20662;-68
2022/08/25 09:25:44;;;;;;;2.40;1.70;;;30.70;93.50;;;31.74;100.00;97505.09;4977150;28;20052;-68
2022/08/25 09:28:54;;;;;;;3.90;1.52;;;30.80;92.70;;;31.43;100.00;97514.44;4977484;28;20078;-68
2022/08/25 09:31:26;;;;;;;2.47;1.60;;;31.00;92.20;;;31.22;100.00;97518.84;4984239;28;20050;-68
2022/08/25 09:33:59;;;;;;;3.72;1.80;;;30.70;92.00;;;30.47;100.00;97508.81;5002932;28;20050;-68
2022/08/25 09:36:29;;;;;;;2.50;1.50;;;30.60;91.90;;;31.31;100.00;97514.16;5002775;28;20089;-68
2022/08/25 09:39:06;;;;;;;3.08;1.52;;;30.60;91.90;;;32.26;100.00;97506.25;4984332;28;20154;-68
2022/08/25 09:41:48;;;;;;;3.00;1.80;;;30.80;91.70;;;31.30;100.00;97514.38;4986821;28;20051;-68
2022/08/25 09:44:40;;;;;;;3.72;1.50;;;30.90;91.10;;;31.26;100.00;97520.13;5002052;28;20490;-68
2022/08/25 09:47:17;;;;;;;3.63;1.50;;;31.30;91.10;;;32.34;100.00;97508.72;4983642;28;20128;-68
2022/08/25 09:49:55;;;;;;;3.85;1.83;;;31.40;90.30;;;31.97;100.00;97520.88;4982756;28;20837;-68
2022/08/25 09:52:25;;;;;;;4.10;1.55;;;31.20;90.40;;;31.89;100.00;97509.25;4986007;28;20100;-68
2022/08/25 09:54:55;;;;;;;3.13;1.70;;;31.50;90.20;;;31.30;100.00;97517.06;4982963;28;20094;-68
2022/08/25 09:57:55;;;;;;;4.35;1.80;;;31.30;90.20;;;31.15;100.00;97511.81;4987077;28;20050;-69
2022/08/25 10:00:23;;;;;;;3.05;1.80;;;31.00;90.60;;;32.29;100.00;97495.09;4985852;28;20050;-69
2022/08/25 10:03:21;;;;;;;1.98;1.40;;;31.00;91.00;;;32.61;100.00;97482.72;4980685;28;20161;-69
2022/08/25 10:06:12;;;;;;;2.92;1.67;;;31.50;90.20;;;32.55;100.00;97482.72;4974041;28;20058;-69
2022/08/25 10:08:42;;;;;;;3.88;1.58;;;31.80;89.90;;;33.53;100.00;97494.31;4986625;28;20050;-68
2022/08/25 10:11:14;;;;;;;2.70;1.47;;;31.90;89.90;;;33.10;100.00;97489.50;4982968;28;20436;-68
2022/08/25 10:13:51;;;;;;;4.10;1.88;;;31.90;88.20;;;32.22;100.00;97486.19;4986186;28;20398;-69
2022/08/25 10:16:31;;;;;;;3.03;1.63;;;31.70;88.00;;;33.10;100.00;97485.97;4971058;28;20062;-69
2022/08/25 10:19:11;;;;;;;2.92;1.67;;;32.00;89.10;;;32.25;100.00;97483.94;4985754;28;20050;-69
2022/08/25 10:21:41;;;;;;;2.47;1.60;;;32.10;87.40;;;32.22;100.00;97478.16;4984082;28;20082;-69
2022/08/25 10:24:11;;;;;;;2.75;1.45;;;32.00;86.50;;;33.69;100.00;97465.28;4979672;28;20086;-69
2022/08/25 10:27:13;;;;;;;3.83;1.65;;;32.40;87.90;;;31.25;100.00;97474.75;4976668;28;20058;-69
2022/08/25 10:30:04;;;;;;;3.45;1.60;;;31.90;85.60;;;32.78;100.00;97469.69;4984279;28;20078;-69
2022/08/25 10:33:03;;;;;;;2.25;1.77;;;32.00;87.10;;;32.26;100.00;97474.03;4987336;28;20547;-68
2022/08/25 10:36:08;;;;;;;4.53;1.50;;;31.80;87.60;;;32.70;100.00;97456.44;4983252;28;20551;-69
2022/08/25 10:38:42;;;;;;;5.38;2.03;;;32.20;86.60;;;32.01;100.00;97458.50;4984354;28;20068;-69
2022/08/25 10:41:36;;;;;;;3.25;1.90;;;32.10;86.30;;;31.40;100.00;97466.53;4985901;28;20050;-69
2022/08/25 10:47:50;;;;;;;2.72;1.70;;;32.10;85.80;;;32.23;100.00;97453.78;4984947;28;20108;-69
2022/08/25 10:50:42;;;;;;;2.72;1.27;;;32.30;84.60;;;32.09;100.00;97447.59;4982222;28;20512;-69
2022/08/25 10:54:03;;;;;;;3.72;1.98;;;32.10;84.80;;;32.99;100.00;97438.19;4983036;28;20051;-69
2022/08/25 10:56:40;;;;;;;4.43;1.90;;;32.20;84.30;;;31.94;100.00;97441.53;4984693;28;20104;-69
2022/08/25 10:59:54;;;;;;;2.38;1.30;;;32.20;82.80;;;32.72;100.00;97439.06;4981762;28;20053;-69